sensor_id;sensor_type;location;lat;lon;timestamp;P1;durP1;ratioP1;P2;durP2;ratioP2
69310;SDS011;56430;48.154;16.458;2022-11-15T00:00:47;73.72;;;19.00;;
69310;SDS011;56430;48.154;16.458;2022-11-15T00:03:15;54.13;;;14.77;;
69310;SDS011;56430;48.154;16.458;2022-11-15T00:05:45;50.75;;;16.80;;
69310;SDS011;56430;48.154;16.458;2022-11-15T00:08:13;59.33;;;16.20;;
69310;SDS011;56430;48.154;16.458;2022-11-15T00:10:41;46.88;;;14.85;;
69310;SDS011;56430;48.154;16.458;2022-11-15T00:13:09;61.30;;;17.70;;
69310;SDS011;56430;48.154;16.458;2022-11-15T00:15:38;62.20;;;18.00;;
69310;SDS011;56430;48.154;16.458;2022-11-15T00:18:06;60.25;;;17.90;;
69310;SDS011;56430;48.154;16.458;2022-11-15T00:20:37;54.58;;;15.70;;
69310;SDS011;56430;48.154;16.458;2022-11-15T00:23:06;48.88;;;14.70;;
69310;SDS011;56430;48.154;16.458;2022-11-15T00:25:33;52.53;;;16.42;;
69310;SDS011;56430;48.154;16.458;2022-11-15T00:28:01;54.20;;;15.87;;
69310;SDS011;56430;48.154;16.458;2022-11-15T00:30:29;53.10;;;15.38;;
69310;SDS011;56430;48.154;16.458;2022-11-15T00:32:58;51.28;;;15.85;;
69310;SDS011;56430;48.154;16.458;2022-11-15T00:35:30;46.17;;;13.40;;
69310;SDS011;56430;48.154;16.458;2022-11-15T00:37:58;51.97;;;14.95;;
69310;SDS011;56430;48.154;16.458;2022-11-15T00:40:27;45.00;;;15.43;;
69310;SDS011;56430;48.154;16.458;2022-11-15T00:42:54;50.90;;;16.75;;
69310;SDS011;56430;48.154;16.458;2022-11-15T00:45:24;51.05;;;14.65;;
69310;SDS011;56430;48.154;16.458;2022-11-15T00:47:52;43.22;;;13.48;;
69310;SDS011;56430;48.154;16.458;2022-11-15T00:50:20;45.92;;;14.40;;
69310;SDS011;56430;48.154;16.458;2022-11-15T00:52:47;50.03;;;13.63;;
69310;SDS011;56430;48.154;16.458;2022-11-15T00:55:15;46.90;;;13.15;;
69310;SDS011;56430;48.154;16.458;2022-11-15T00:57:44;47.97;;;15.15;;
69310;SDS011;56430;48.154;16.458;2022-11-15T01:00:13;51.72;;;14.55;;
69310;SDS011;56430;48.154;16.458;2022-11-15T01:02:40;47.67;;;14.48;;
69310;SDS011;56430;48.154;16.458;2022-11-15T01:05:08;46.43;;;13.70;;
69310;SDS011;56430;48.154;16.458;2022-11-15T01:07:35;47.00;;;13.73;;
69310;SDS011;56430;48.154;16.458;2022-11-15T01:10:03;49.33;;;15.35;;
69310;SDS011;56430;48.154;16.458;2022-11-15T01:12:30;42.47;;;13.05;;
69310;SDS011;56430;48.154;16.458;2022-11-15T01:14:59;49.03;;;14.48;;
69310;SDS011;56430;48.154;16.458;2022-11-15T01:17:26;40.90;;;13.40;;
69310;SDS011;56430;48.154;16.458;2022-11-15T01:19:54;48.20;;;15.00;;
69310;SDS011;56430;48.154;16.458;2022-11-15T01:22:21;46.78;;;14.60;;
69310;SDS011;56430;48.154;16.458;2022-11-15T01:24:49;48.83;;;14.63;;
69310;SDS011;56430;48.154;16.458;2022-11-15T01:27:16;47.28;;;14.75;;
69310;SDS011;56430;48.154;16.458;2022-11-15T01:29:44;42.60;;;13.60;;
69310;SDS011;56430;48.154;16.458;2022-11-15T01:32:12;40.00;;;12.55;;
69310;SDS011;56430;48.154;16.458;2022-11-15T01:34:39;42.85;;;13.77;;
69310;SDS011;56430;48.154;16.458;2022-11-15T01:37:07;44.55;;;14.40;;
69310;SDS011;56430;48.154;16.458;2022-11-15T01:39:34;46.70;;;15.25;;
69310;SDS011;56430;48.154;16.458;2022-11-15T01:42:01;44.23;;;15.00;;
69310;SDS011;56430;48.154;16.458;2022-11-15T01:44:37;34.92;;;12.32;;
69310;SDS011;56430;48.154;16.458;2022-11-15T01:47:08;46.85;;;14.70;;
69310;SDS011;56430;48.154;16.458;2022-11-15T01:49:38;45.38;;;14.57;;
69310;SDS011;56430;48.154;16.458;2022-11-15T01:52:07;47.05;;;16.23;;
69310;SDS011;56430;48.154;16.458;2022-11-15T01:54:36;37.50;;;12.53;;
69310;SDS011;56430;48.154;16.458;2022-11-15T01:57:04;42.53;;;13.48;;
69310;SDS011;56430;48.154;16.458;2022-11-15T01:59:34;52.63;;;14.95;;
69310;SDS011;56430;48.154;16.458;2022-11-15T02:02:01;49.25;;;14.43;;
69310;SDS011;56430;48.154;16.458;2022-11-15T02:04:29;47.63;;;13.82;;
69310;SDS011;56430;48.154;16.458;2022-11-15T02:06:59;46.47;;;14.50;;
69310;SDS011;56430;48.154;16.458;2022-11-15T02:09:28;50.65;;;13.35;;
69310;SDS011;56430;48.154;16.458;2022-11-15T02:11:56;51.30;;;15.50;;
69310;SDS011;56430;48.154;16.458;2022-11-15T02:14:23;52.08;;;15.82;;
69310;SDS011;56430;48.154;16.458;2022-11-15T02:16:54;52.17;;;14.48;;
69310;SDS011;56430;48.154;16.458;2022-11-15T02:19:37;40.83;;;14.30;;
69310;SDS011;56430;48.154;16.458;2022-11-15T02:22:14;52.90;;;14.68;;
69310;SDS011;56430;48.154;16.458;2022-11-15T02:24:58;45.53;;;13.23;;
69310;SDS011;56430;48.154;16.458;2022-11-15T02:27:38;50.15;;;15.65;;
69310;SDS011;56430;48.154;16.458;2022-11-15T02:30:18;47.78;;;14.57;;
69310;SDS011;56430;48.154;16.458;2022-11-15T02:32:48;41.53;;;13.17;;
69310;SDS011;56430;48.154;16.458;2022-11-15T02:35:20;47.42;;;14.32;;
69310;SDS011;56430;48.154;16.458;2022-11-15T02:37:51;49.58;;;14.85;;
69310;SDS011;56430;48.154;16.458;2022-11-15T02:40:23;48.63;;;14.00;;
69310;SDS011;56430;48.154;16.458;2022-11-15T02:42:55;54.15;;;15.00;;
69310;SDS011;56430;48.154;16.458;2022-11-15T02:46:01;47.17;;;14.40;;
69310;SDS011;56430;48.154;16.458;2022-11-15T02:48:31;47.28;;;14.48;;
69310;SDS011;56430;48.154;16.458;2022-11-15T02:50:59;44.78;;;14.32;;
69310;SDS011;56430;48.154;16.458;2022-11-15T02:53:27;45.75;;;15.02;;
69310;SDS011;56430;48.154;16.458;2022-11-15T02:55:55;46.22;;;14.00;;
69310;SDS011;56430;48.154;16.458;2022-11-15T02:58:28;49.83;;;14.87;;
69310;SDS011;56430;48.154;16.458;2022-11-15T03:01:06;48.05;;;16.20;;
69310;SDS011;56430;48.154;16.458;2022-11-15T03:03:45;54.40;;;15.40;;
69310;SDS011;56430;48.154;16.458;2022-11-15T03:06:20;48.33;;;14.95;;
69310;SDS011;56430;48.154;16.458;2022-11-15T03:08:55;54.47;;;16.08;;
69310;SDS011;56430;48.154;16.458;2022-11-15T03:11:26;53.43;;;15.83;;
69310;SDS011;56430;48.154;16.458;2022-11-15T03:13:56;47.00;;;14.57;;
69310;SDS011;56430;48.154;16.458;2022-11-15T03:16:27;58.05;;;16.52;;
69310;SDS011;56430;48.154;16.458;2022-11-15T03:18:58;47.55;;;14.98;;
69310;SDS011;56430;48.154;16.458;2022-11-15T03:21:27;56.92;;;15.90;;
69310;SDS011;56430;48.154;16.458;2022-11-15T03:23:55;47.70;;;14.67;;
69310;SDS011;56430;48.154;16.458;2022-11-15T03:26:25;51.25;;;14.98;;
69310;SDS011;56430;48.154;16.458;2022-11-15T03:28:53;50.55;;;16.02;;
69310;SDS011;56430;48.154;16.458;2022-11-15T03:31:22;51.60;;;15.38;;
69310;SDS011;56430;48.154;16.458;2022-11-15T03:34:13;55.50;;;17.05;;
69310;SDS011;56430;48.154;16.458;2022-11-15T03:36:44;55.07;;;16.03;;
69310;SDS011;56430;48.154;16.458;2022-11-15T03:39:11;55.25;;;17.23;;
69310;SDS011;56430;48.154;16.458;2022-11-15T03:41:39;55.67;;;14.98;;
69310;SDS011;56430;48.154;16.458;2022-11-15T03:44:11;58.92;;;17.40;;
69310;SDS011;56430;48.154;16.458;2022-11-15T03:46:43;52.75;;;15.18;;
69310;SDS011;56430;48.154;16.458;2022-11-15T03:49:17;49.63;;;15.00;;
69310;SDS011;56430;48.154;16.458;2022-11-15T03:51:49;56.53;;;16.40;;
69310;SDS011;56430;48.154;16.458;2022-11-15T03:54:16;58.30;;;16.88;;
69310;SDS011;56430;48.154;16.458;2022-11-15T03:56:43;49.25;;;15.70;;
69310;SDS011;56430;48.154;16.458;2022-11-15T03:59:10;56.20;;;16.70;;
69310;SDS011;56430;48.154;16.458;2022-11-15T04:01:38;55.73;;;16.13;;
69310;SDS011;56430;48.154;16.458;2022-11-15T04:04:05;58.50;;;15.75;;
69310;SDS011;56430;48.154;16.458;2022-11-15T04:06:33;63.58;;;17.55;;
69310;SDS011;56430;48.154;16.458;2022-11-15T04:09:01;50.70;;;14.43;;
69310;SDS011;56430;48.154;16.458;2022-11-15T04:11:28;64.20;;;17.67;;
69310;SDS011;56430;48.154;16.458;2022-11-15T04:13:55;54.73;;;15.67;;
69310;SDS011;56430;48.154;16.458;2022-11-15T04:16:22;49.42;;;14.57;;
69310;SDS011;56430;48.154;16.458;2022-11-15T04:18:49;49.40;;;14.00;;
69310;SDS011;56430;48.154;16.458;2022-11-15T04:21:38;53.05;;;14.57;;
69310;SDS011;56430;48.154;16.458;2022-11-15T04:24:31;54.72;;;15.88;;
69310;SDS011;56430;48.154;16.458;2022-11-15T04:26:59;64.90;;;17.23;;
69310;SDS011;56430;48.154;16.458;2022-11-15T04:29:26;63.80;;;15.68;;
69310;SDS011;56430;48.154;16.458;2022-11-15T04:32:03;59.50;;;16.08;;
69310;SDS011;56430;48.154;16.458;2022-11-15T04:34:31;57.03;;;17.27;;
69310;SDS011;56430;48.154;16.458;2022-11-15T04:37:01;60.53;;;17.38;;
69310;SDS011;56430;48.154;16.458;2022-11-15T04:39:42;55.77;;;15.90;;
69310;SDS011;56430;48.154;16.458;2022-11-15T04:42:09;57.95;;;16.38;;
69310;SDS011;56430;48.154;16.458;2022-11-15T04:44:37;61.10;;;17.52;;
69310;SDS011;56430;48.154;16.458;2022-11-15T04:47:04;69.45;;;17.45;;
69310;SDS011;56430;48.154;16.458;2022-11-15T04:49:34;56.90;;;16.20;;
69310;SDS011;56430;48.154;16.458;2022-11-15T04:52:03;65.40;;;17.70;;
69310;SDS011;56430;48.154;16.458;2022-11-15T04:54:30;59.08;;;17.17;;
69310;SDS011;56430;48.154;16.458;2022-11-15T04:57:00;54.88;;;16.85;;
69310;SDS011;56430;48.154;16.458;2022-11-15T04:59:27;61.75;;;17.73;;
69310;SDS011;56430;48.154;16.458;2022-11-15T05:01:54;64.43;;;16.00;;
69310;SDS011;56430;48.154;16.458;2022-11-15T05:04:22;58.60;;;17.47;;
69310;SDS011;56430;48.154;16.458;2022-11-15T05:06:48;62.17;;;16.55;;
69310;SDS011;56430;48.154;16.458;2022-11-15T05:09:18;84.38;;;17.00;;
69310;SDS011;56430;48.154;16.458;2022-11-15T05:11:46;67.97;;;18.23;;
69310;SDS011;56430;48.154;16.458;2022-11-15T05:14:13;71.93;;;19.33;;
69310;SDS011;56430;48.154;16.458;2022-11-15T05:16:41;61.53;;;17.17;;
69310;SDS011;56430;48.154;16.458;2022-11-15T05:19:08;71.07;;;18.40;;
69310;SDS011;56430;48.154;16.458;2022-11-15T05:21:36;56.53;;;16.48;;
69310;SDS011;56430;48.154;16.458;2022-11-15T05:24:04;60.28;;;16.90;;
69310;SDS011;56430;48.154;16.458;2022-11-15T05:26:36;71.15;;;17.90;;
69310;SDS011;56430;48.154;16.458;2022-11-15T05:29:03;60.63;;;17.10;;
69310;SDS011;56430;48.154;16.458;2022-11-15T05:31:30;59.65;;;16.95;;
69310;SDS011;56430;48.154;16.458;2022-11-15T05:33:57;60.50;;;17.45;;
69310;SDS011;56430;48.154;16.458;2022-11-15T05:36:27;60.03;;;16.58;;
69310;SDS011;56430;48.154;16.458;2022-11-15T05:38:56;59.38;;;17.67;;
69310;SDS011;56430;48.154;16.458;2022-11-15T05:41:24;67.37;;;18.43;;
69310;SDS011;56430;48.154;16.458;2022-11-15T05:43:55;71.75;;;19.45;;
69310;SDS011;56430;48.154;16.458;2022-11-15T05:46:22;70.15;;;18.05;;
69310;SDS011;56430;48.154;16.458;2022-11-15T05:48:50;69.00;;;17.98;;
69310;SDS011;56430;48.154;16.458;2022-11-15T05:51:19;66.97;;;17.55;;
69310;SDS011;56430;48.154;16.458;2022-11-15T05:53:47;60.73;;;16.90;;
69310;SDS011;56430;48.154;16.458;2022-11-15T05:56:15;70.32;;;18.13;;
69310;SDS011;56430;48.154;16.458;2022-11-15T05:58:43;58.00;;;17.88;;
69310;SDS011;56430;48.154;16.458;2022-11-15T06:01:11;55.50;;;15.32;;
69310;SDS011;56430;48.154;16.458;2022-11-15T06:03:39;61.13;;;17.63;;
69310;SDS011;56430;48.154;16.458;2022-11-15T06:06:06;55.37;;;16.37;;
69310;SDS011;56430;48.154;16.458;2022-11-15T06:08:34;59.45;;;17.25;;
69310;SDS011;56430;48.154;16.458;2022-11-15T06:11:04;48.33;;;15.00;;
69310;SDS011;56430;48.154;16.458;2022-11-15T06:13:32;53.90;;;14.75;;
69310;SDS011;56430;48.154;16.458;2022-11-15T06:16:00;50.65;;;14.70;;
69310;SDS011;56430;48.154;16.458;2022-11-15T06:18:31;50.20;;;14.77;;
69310;SDS011;56430;48.154;16.458;2022-11-15T06:20:58;61.22;;;17.02;;
69310;SDS011;56430;48.154;16.458;2022-11-15T06:23:26;60.80;;;18.27;;
69310;SDS011;56430;48.154;16.458;2022-11-15T06:25:53;67.15;;;17.95;;
69310;SDS011;56430;48.154;16.458;2022-11-15T06:28:24;81.32;;;19.05;;
69310;SDS011;56430;48.154;16.458;2022-11-15T06:30:51;57.57;;;17.23;;
69310;SDS011;56430;48.154;16.458;2022-11-15T06:33:18;62.75;;;17.60;;
69310;SDS011;56430;48.154;16.458;2022-11-15T06:35:47;55.47;;;15.32;;
69310;SDS011;56430;48.154;16.458;2022-11-15T06:38:14;61.30;;;16.92;;
69310;SDS011;56430;48.154;16.458;2022-11-15T06:40:41;56.97;;;17.48;;
69310;SDS011;56430;48.154;16.458;2022-11-15T06:43:09;62.47;;;18.40;;
69310;SDS011;56430;48.154;16.458;2022-11-15T06:45:36;67.47;;;18.90;;
69310;SDS011;56430;48.154;16.458;2022-11-15T06:48:03;60.15;;;17.27;;
69310;SDS011;56430;48.154;16.458;2022-11-15T06:50:31;68.63;;;17.13;;
69310;SDS011;56430;48.154;16.458;2022-11-15T06:53:03;61.20;;;16.42;;
69310;SDS011;56430;48.154;16.458;2022-11-15T06:55:31;58.30;;;16.07;;
69310;SDS011;56430;48.154;16.458;2022-11-15T06:57:58;58.03;;;17.00;;
69310;SDS011;56430;48.154;16.458;2022-11-15T07:00:25;56.83;;;15.10;;
69310;SDS011;56430;48.154;16.458;2022-11-15T07:02:52;63.95;;;17.20;;
69310;SDS011;56430;48.154;16.458;2022-11-15T07:05:20;62.90;;;18.27;;
69310;SDS011;56430;48.154;16.458;2022-11-15T07:07:51;63.37;;;17.90;;
69310;SDS011;56430;48.154;16.458;2022-11-15T07:10:22;59.13;;;18.60;;
69310;SDS011;56430;48.154;16.458;2022-11-15T07:12:51;58.47;;;18.38;;
69310;SDS011;56430;48.154;16.458;2022-11-15T07:15:20;58.30;;;17.75;;
69310;SDS011;56430;48.154;16.458;2022-11-15T07:17:48;60.00;;;17.45;;
69310;SDS011;56430;48.154;16.458;2022-11-15T07:20:16;47.97;;;15.37;;
69310;SDS011;56430;48.154;16.458;2022-11-15T07:22:44;61.45;;;17.80;;
69310;SDS011;56430;48.154;16.458;2022-11-15T07:25:11;61.70;;;16.20;;
69310;SDS011;56430;48.154;16.458;2022-11-15T07:27:40;60.38;;;17.75;;
69310;SDS011;56430;48.154;16.458;2022-11-15T07:30:07;63.83;;;18.13;;
69310;SDS011;56430;48.154;16.458;2022-11-15T07:32:35;59.87;;;17.43;;
69310;SDS011;56430;48.154;16.458;2022-11-15T07:35:03;57.10;;;17.08;;
69310;SDS011;56430;48.154;16.458;2022-11-15T07:37:30;57.30;;;17.02;;
69310;SDS011;56430;48.154;16.458;2022-11-15T07:39:58;63.20;;;18.30;;
69310;SDS011;56430;48.154;16.458;2022-11-15T07:42:25;62.53;;;17.30;;
69310;SDS011;56430;48.154;16.458;2022-11-15T07:45:11;66.73;;;18.00;;
69310;SDS011;56430;48.154;16.458;2022-11-15T07:47:38;57.95;;;16.98;;
69310;SDS011;56430;48.154;16.458;2022-11-15T07:50:06;61.55;;;17.83;;
69310;SDS011;56430;48.154;16.458;2022-11-15T07:52:34;65.18;;;19.45;;
69310;SDS011;56430;48.154;16.458;2022-11-15T07:55:01;65.13;;;18.85;;
69310;SDS011;56430;48.154;16.458;2022-11-15T07:57:28;60.20;;;17.10;;
69310;SDS011;56430;48.154;16.458;2022-11-15T07:59:56;55.80;;;18.55;;
69310;SDS011;56430;48.154;16.458;2022-11-15T08:02:24;60.17;;;18.60;;
69310;SDS011;56430;48.154;16.458;2022-11-15T08:04:52;64.05;;;18.23;;
69310;SDS011;56430;48.154;16.458;2022-11-15T08:07:19;54.80;;;17.25;;
69310;SDS011;56430;48.154;16.458;2022-11-15T08:09:46;55.93;;;17.00;;
69310;SDS011;56430;48.154;16.458;2022-11-15T08:12:13;67.85;;;17.90;;
69310;SDS011;56430;48.154;16.458;2022-11-15T08:14:41;61.55;;;18.15;;
69310;SDS011;56430;48.154;16.458;2022-11-15T08:17:08;55.42;;;16.30;;
69310;SDS011;56430;48.154;16.458;2022-11-15T08:19:37;56.50;;;16.30;;
69310;SDS011;56430;48.154;16.458;2022-11-15T08:22:04;59.20;;;16.53;;
69310;SDS011;56430;48.154;16.458;2022-11-15T08:24:32;55.55;;;15.75;;
69310;SDS011;56430;48.154;16.458;2022-11-15T08:26:59;50.90;;;16.20;;
69310;SDS011;56430;48.154;16.458;2022-11-15T08:29:27;55.17;;;15.63;;
69310;SDS011;56430;48.154;16.458;2022-11-15T08:31:54;53.17;;;15.85;;
69310;SDS011;56430;48.154;16.458;2022-11-15T08:34:22;46.33;;;15.27;;
69310;SDS011;56430;48.154;16.458;2022-11-15T08:36:51;53.78;;;17.45;;
69310;SDS011;56430;48.154;16.458;2022-11-15T08:39:18;50.80;;;16.45;;
69310;SDS011;56430;48.154;16.458;2022-11-15T08:41:45;47.90;;;15.85;;
69310;SDS011;56430;48.154;16.458;2022-11-15T08:44:13;61.30;;;16.83;;
69310;SDS011;56430;48.154;16.458;2022-11-15T08:46:40;73.93;;;19.37;;
69310;SDS011;56430;48.154;16.458;2022-11-15T08:49:07;49.53;;;14.70;;
69310;SDS011;56430;48.154;16.458;2022-11-15T08:51:34;58.40;;;17.10;;
69310;SDS011;56430;48.154;16.458;2022-11-15T08:54:03;57.92;;;16.55;;
69310;SDS011;56430;48.154;16.458;2022-11-15T08:56:30;53.33;;;15.38;;
69310;SDS011;56430;48.154;16.458;2022-11-15T08:58:58;57.00;;;17.03;;
69310;SDS011;56430;48.154;16.458;2022-11-15T09:01:25;78.13;;;18.75;;
69310;SDS011;56430;48.154;16.458;2022-11-15T09:03:52;65.05;;;18.23;;
69310;SDS011;56430;48.154;16.458;2022-11-15T09:06:20;55.38;;;15.95;;
69310;SDS011;56430;48.154;16.458;2022-11-15T09:08:47;62.45;;;17.20;;
69310;SDS011;56430;48.154;16.458;2022-11-15T09:11:16;54.23;;;15.07;;
69310;SDS011;56430;48.154;16.458;2022-11-15T09:13:45;74.25;;;18.73;;
69310;SDS011;56430;48.154;16.458;2022-11-15T09:16:13;56.50;;;17.70;;
69310;SDS011;56430;48.154;16.458;2022-11-15T09:18:40;62.80;;;18.08;;
69310;SDS011;56430;48.154;16.458;2022-11-15T09:21:08;64.35;;;17.15;;
69310;SDS011;56430;48.154;16.458;2022-11-15T09:23:36;56.30;;;17.70;;
69310;SDS011;56430;48.154;16.458;2022-11-15T09:26:04;68.60;;;19.35;;
69310;SDS011;56430;48.154;16.458;2022-11-15T09:28:33;55.92;;;17.38;;
69310;SDS011;56430;48.154;16.458;2022-11-15T09:31:01;58.45;;;17.35;;
69310;SDS011;56430;48.154;16.458;2022-11-15T09:33:31;71.35;;;18.70;;
69310;SDS011;56430;48.154;16.458;2022-11-15T09:36:02;62.77;;;17.73;;
69310;SDS011;56430;48.154;16.458;2022-11-15T09:38:30;66.45;;;18.83;;
69310;SDS011;56430;48.154;16.458;2022-11-15T09:41:08;67.95;;;17.90;;
69310;SDS011;56430;48.154;16.458;2022-11-15T09:43:59;66.68;;;18.65;;
69310;SDS011;56430;48.154;16.458;2022-11-15T09:46:41;63.42;;;17.83;;
69310;SDS011;56430;48.154;16.458;2022-11-15T09:49:13;63.97;;;17.87;;
69310;SDS011;56430;48.154;16.458;2022-11-15T09:51:41;70.93;;;19.58;;
69310;SDS011;56430;48.154;16.458;2022-11-15T09:54:16;66.38;;;18.95;;
69310;SDS011;56430;48.154;16.458;2022-11-15T09:56:48;54.53;;;16.48;;
69310;SDS011;56430;48.154;16.458;2022-11-15T09:59:29;70.47;;;19.58;;
69310;SDS011;56430;48.154;16.458;2022-11-15T10:02:12;64.87;;;18.97;;
69310;SDS011;56430;48.154;16.458;2022-11-15T10:04:45;52.83;;;17.52;;
69310;SDS011;56430;48.154;16.458;2022-11-15T10:07:13;73.68;;;19.33;;
69310;SDS011;56430;48.154;16.458;2022-11-15T10:09:45;65.38;;;18.63;;
69310;SDS011;56430;48.154;16.458;2022-11-15T10:12:16;65.30;;;17.60;;
69310;SDS011;56430;48.154;16.458;2022-11-15T10:14:46;61.80;;;18.07;;
69310;SDS011;56430;48.154;16.458;2022-11-15T10:17:27;60.33;;;18.83;;
69310;SDS011;56430;48.154;16.458;2022-11-15T10:20:02;79.47;;;18.83;;
69310;SDS011;56430;48.154;16.458;2022-11-15T10:22:35;58.30;;;16.73;;
69310;SDS011;56430;48.154;16.458;2022-11-15T10:25:13;58.25;;;16.98;;
69310;SDS011;56430;48.154;16.458;2022-11-15T10:27:48;80.13;;;19.53;;
69310;SDS011;56430;48.154;16.458;2022-11-15T10:30:20;59.08;;;18.05;;
69310;SDS011;56430;48.154;16.458;2022-11-15T10:32:48;62.60;;;18.17;;
69310;SDS011;56430;48.154;16.458;2022-11-15T10:35:17;57.88;;;16.98;;
69310;SDS011;56430;48.154;16.458;2022-11-15T10:37:46;55.22;;;15.82;;
69310;SDS011;56430;48.154;16.458;2022-11-15T10:40:15;59.87;;;17.17;;
69310;SDS011;56430;48.154;16.458;2022-11-15T10:42:43;60.20;;;16.92;;
69310;SDS011;56430;48.154;16.458;2022-11-15T10:45:25;55.65;;;16.38;;
69310;SDS011;56430;48.154;16.458;2022-11-15T10:48:19;50.92;;;15.85;;
69310;SDS011;56430;48.154;16.458;2022-11-15T10:50:48;52.47;;;17.58;;
69310;SDS011;56430;48.154;16.458;2022-11-15T10:53:18;56.27;;;16.77;;
69310;SDS011;56430;48.154;16.458;2022-11-15T10:55:52;51.53;;;16.42;;
69310;SDS011;56430;48.154;16.458;2022-11-15T10:58:25;56.88;;;17.98;;
69310;SDS011;56430;48.154;16.458;2022-11-15T11:01:07;53.20;;;14.98;;
69310;SDS011;56430;48.154;16.458;2022-11-15T11:03:37;55.15;;;17.02;;
69310;SDS011;56430;48.154;16.458;2022-11-15T11:06:09;52.30;;;15.93;;
69310;SDS011;56430;48.154;16.458;2022-11-15T11:08:38;58.60;;;17.52;;
69310;SDS011;56430;48.154;16.458;2022-11-15T11:11:06;52.42;;;15.93;;
69310;SDS011;56430;48.154;16.458;2022-11-15T11:13:35;51.03;;;17.00;;
69310;SDS011;56430;48.154;16.458;2022-11-15T11:19:17;54.30;;;16.70;;
69310;SDS011;56430;48.154;16.458;2022-11-15T11:21:51;52.60;;;16.00;;
69310;SDS011;56430;48.154;16.458;2022-11-15T11:24:28;55.50;;;16.90;;
69310;SDS011;56430;48.154;16.458;2022-11-15T11:27:03;49.92;;;16.35;;
69310;SDS011;56430;48.154;16.458;2022-11-15T11:29:43;50.90;;;16.17;;
69310;SDS011;56430;48.154;16.458;2022-11-15T11:32:26;50.90;;;15.60;;
69310;SDS011;56430;48.154;16.458;2022-11-15T11:35:17;53.50;;;16.50;;
69310;SDS011;56430;48.154;16.458;2022-11-15T11:37:47;48.72;;;16.00;;
69310;SDS011;56430;48.154;16.458;2022-11-15T11:40:20;49.28;;;16.30;;
69310;SDS011;56430;48.154;16.458;2022-11-15T11:42:56;55.58;;;17.65;;
69310;SDS011;56430;48.154;16.458;2022-11-15T11:45:36;48.03;;;15.20;;
69310;SDS011;56430;48.154;16.458;2022-11-15T11:48:22;57.50;;;19.45;;
69310;SDS011;56430;48.154;16.458;2022-11-15T11:51:03;49.00;;;15.02;;
69310;SDS011;56430;48.154;16.458;2022-11-15T11:53:34;47.47;;;16.55;;
69310;SDS011;56430;48.154;16.458;2022-11-15T11:56:16;51.47;;;16.38;;
69310;SDS011;56430;48.154;16.458;2022-11-15T11:58:48;46.83;;;15.83;;
69310;SDS011;56430;48.154;16.458;2022-11-15T12:01:17;48.85;;;16.30;;
69310;SDS011;56430;48.154;16.458;2022-11-15T12:03:51;49.50;;;16.70;;
69310;SDS011;56430;48.154;16.458;2022-11-15T12:06:21;45.25;;;16.25;;
69310;SDS011;56430;48.154;16.458;2022-11-15T12:08:52;44.33;;;13.73;;
69310;SDS011;56430;48.154;16.458;2022-11-15T12:11:22;49.80;;;16.27;;
69310;SDS011;56430;48.154;16.458;2022-11-15T12:14:03;48.95;;;16.92;;
69310;SDS011;56430;48.154;16.458;2022-11-15T12:16:32;39.97;;;14.63;;
69310;SDS011;56430;48.154;16.458;2022-11-15T12:19:02;42.00;;;14.82;;
69310;SDS011;56430;48.154;16.458;2022-11-15T12:21:33;40.13;;;13.60;;
69310;SDS011;56430;48.154;16.458;2022-11-15T12:24:03;37.93;;;14.43;;
69310;SDS011;56430;48.154;16.458;2022-11-15T12:26:34;38.88;;;14.82;;
69310;SDS011;56430;48.154;16.458;2022-11-15T12:29:05;37.30;;;13.73;;
69310;SDS011;56430;48.154;16.458;2022-11-15T12:31:38;36.63;;;13.25;;
69310;SDS011;56430;48.154;16.458;2022-11-15T12:34:15;38.58;;;14.35;;
69310;SDS011;56430;48.154;16.458;2022-11-15T12:36:56;38.63;;;15.50;;
69310;SDS011;56430;48.154;16.458;2022-11-15T12:42:38;35.92;;;14.50;;
69310;SDS011;56430;48.154;16.458;2022-11-15T12:47:53;41.80;;;16.05;;
69310;SDS011;56430;48.154;16.458;2022-11-15T12:53:27;39.33;;;13.75;;
69310;SDS011;56430;48.154;16.458;2022-11-15T12:58:49;37.30;;;14.48;;
69310;SDS011;56430;48.154;16.458;2022-11-15T13:04:35;44.27;;;15.27;;
69310;SDS011;56430;48.154;16.458;2022-11-15T13:07:04;37.22;;;15.43;;
69310;SDS011;56430;48.154;16.458;2022-11-15T13:12:56;40.35;;;15.07;;
69310;SDS011;56430;48.154;16.458;2022-11-15T13:15:31;40.70;;;16.77;;
69310;SDS011;56430;48.154;16.458;2022-11-15T13:20:52;39.72;;;15.55;;
69310;SDS011;56430;48.154;16.458;2022-11-15T13:23:21;42.92;;;16.02;;
69310;SDS011;56430;48.154;16.458;2022-11-15T13:26:04;37.50;;;15.45;;
69310;SDS011;56430;48.154;16.458;2022-11-15T13:28:37;38.55;;;15.43;;
69310;SDS011;56430;48.154;16.458;2022-11-15T13:34:12;40.17;;;15.23;;
69310;SDS011;56430;48.154;16.458;2022-11-15T13:36:44;41.58;;;17.13;;
69310;SDS011;56430;48.154;16.458;2022-11-15T13:39:14;39.42;;;15.75;;
69310;SDS011;56430;48.154;16.458;2022-11-15T13:41:52;39.85;;;16.45;;
69310;SDS011;56430;48.154;16.458;2022-11-15T13:44:20;40.03;;;15.60;;
69310;SDS011;56430;48.154;16.458;2022-11-15T13:46:47;39.33;;;16.02;;
69310;SDS011;56430;48.154;16.458;2022-11-15T13:49:15;41.38;;;16.58;;
69310;SDS011;56430;48.154;16.458;2022-11-15T13:51:43;34.83;;;15.95;;
69310;SDS011;56430;48.154;16.458;2022-11-15T13:54:18;39.30;;;17.98;;
69310;SDS011;56430;48.154;16.458;2022-11-15T13:56:47;37.50;;;16.70;;
69310;SDS011;56430;48.154;16.458;2022-11-15T13:59:17;43.05;;;16.60;;
69310;SDS011;56430;48.154;16.458;2022-11-15T14:01:47;40.95;;;16.73;;
69310;SDS011;56430;48.154;16.458;2022-11-15T14:04:18;38.25;;;15.73;;
69310;SDS011;56430;48.154;16.458;2022-11-15T14:06:46;36.78;;;15.38;;
69310;SDS011;56430;48.154;16.458;2022-11-15T14:09:30;44.20;;;16.37;;
69310;SDS011;56430;48.154;16.458;2022-11-15T14:12:19;41.78;;;15.93;;
69310;SDS011;56430;48.154;16.458;2022-11-15T14:14:48;37.38;;;15.85;;
69310;SDS011;56430;48.154;16.458;2022-11-15T14:17:18;44.40;;;16.67;;
69310;SDS011;56430;48.154;16.458;2022-11-15T14:19:49;45.05;;;18.08;;
69310;SDS011;56430;48.154;16.458;2022-11-15T14:22:19;45.70;;;17.67;;
69310;SDS011;56430;48.154;16.458;2022-11-15T14:27:44;45.10;;;19.40;;
69310;SDS011;56430;48.154;16.458;2022-11-15T14:30:36;44.90;;;17.88;;
69310;SDS011;56430;48.154;16.458;2022-11-15T14:33:11;49.33;;;18.48;;
69310;SDS011;56430;48.154;16.458;2022-11-15T14:35:44;48.70;;;18.83;;
69310;SDS011;56430;48.154;16.458;2022-11-15T14:38:11;44.70;;;18.75;;
69310;SDS011;56430;48.154;16.458;2022-11-15T14:40:41;43.72;;;17.65;;
69310;SDS011;56430;48.154;16.458;2022-11-15T14:43:09;48.42;;;17.88;;
69310;SDS011;56430;48.154;16.458;2022-11-15T14:45:37;47.05;;;17.98;;
69310;SDS011;56430;48.154;16.458;2022-11-15T14:48:04;58.23;;;20.57;;
69310;SDS011;56430;48.154;16.458;2022-11-15T14:50:32;47.42;;;17.45;;
69310;SDS011;56430;48.154;16.458;2022-11-15T14:53:00;50.83;;;20.65;;
69310;SDS011;56430;48.154;16.458;2022-11-15T14:55:29;51.35;;;19.38;;
69310;SDS011;56430;48.154;16.458;2022-11-15T14:57:59;46.28;;;18.17;;